Sally — WDC3701 — position and weather

sailwx.info

Track history (hours):
 
Tides and Currents Weather Stations Pressure Air Temp Water Temp Dewpoint Dewpoint Depression Visibility Wind Speed Wind Dir Waves Ship Positions

Sally

Owner: Wilmington Tug, Inc., New Castle, DE. More information available from US FCC via Universal Licensing System and Coast Guard Vessel Documentation Center.

Last reported at 2018-Jan-18 15:00 UTC. Time now 2018-Jan-18 15:34 UTC.
Position N 39°43' W 075°31'.

Length 24 m; draft 4 m.

Type: Tug. MMSI: 367012660.

Date/timePositionNaut miles runAvg speedWind from/ knotsBaromVisibWave heightAir tempDewpointWater temp
2018-Jan-18 15:00N 39°43' W 075°31'0 0.0
2018-Jan-18 14:30N 39°43' W 075°31'0 0.0
2018-Jan-18 14:00N 39°43' W 075°31'0 0.3
2018-Jan-18 13:28N 39°43' W 075°31'0 0.0
2018-Jan-18 13:00N 39°43' W 075°31'1 2.0
2018-Jan-18 12:30N 39°43' W 075°30'1 1.3
2018-Jan-18 12:00N 39°43' W 075°31'0 0.5
2018-Jan-18 11:30N 39°43' W 075°31'0 0.0
2018-Jan-18 11:00N 39°43' W 075°31'0 0.0
2018-Jan-18 10:30N 39°43' W 075°31'0 0.0
2018-Jan-18 10:00N 39°43' W 075°31'0 0.0
2018-Jan-18 09:30N 39°43' W 075°31'0 0.0
2018-Jan-18 09:01N 39°43' W 075°31'0 0.0
2018-Jan-18 08:30N 39°43' W 075°31'2 4.2
2018-Jan-18 08:01N 39°41' W 075°32'5 9.7
2018-Jan-18 07:31N 39°37' W 075°36'2 5.0
2018-Jan-18 07:00N 39°35' W 075°35'0 0.0
2018-Jan-18 06:30N 39°35' W 075°35'0 0.1
2018-Jan-18 06:01N 39°35' W 075°35'0 0.1
2018-Jan-18 05:30N 39°35' W 075°35'0 0.9
2018-Jan-18 05:00N 39°35' W 075°35'1 2.0
2018-Jan-18 04:30N 39°34' W 075°34'0 0.1
2018-Jan-18 04:00N 39°34' W 075°34'1 2.7
2018-Jan-18 03:30N 39°35' W 075°35'0 0.0
2018-Jan-18 03:01N 39°35' W 075°35'1 2.0
2018-Jan-18 02:30N 39°36' W 075°36'5 9.1
2018-Jan-18 02:00N 39°40' W 075°33'4 7.2
2018-Jan-18 01:30N 39°43' W 075°31'0 0.0
2018-Jan-18 01:01N 39°43' W 075°31'0 0.0
2018-Jan-18 00:01N 39°43' W 075°31'0 0.1
2018-Jan-17 23:58N 39°43' W 075°31'  
2018-Jan-12 15:00N 39°43' W 075°31'0 0.0
2018-Jan-12 14:30N 39°43' W 075°31'0 0.0
2018-Jan-12 14:00N 39°43' W 075°31'0 0.0
2018-Jan-12 13:30N 39°43' W 075°31'0 0.0
2018-Jan-12 13:00N 39°43' W 075°31'0 0.0
2018-Jan-12 12:30N 39°43' W 075°31'0 0.0
2018-Jan-12 12:00N 39°43' W 075°31'0 0.0
2018-Jan-12 11:30N 39°43' W 075°31'0 0.0
2018-Jan-12 11:00N 39°43' W 075°31'0 0.0
2018-Jan-12 10:30N 39°43' W 075°31'0 0.0
2018-Jan-12 10:00N 39°43' W 075°31'0 0.0
2018-Jan-12 09:30N 39°43' W 075°31'0 0.0
2018-Jan-12 09:00N 39°43' W 075°31'0 0.3
2018-Jan-12 08:30N 39°43' W 075°31'1 1.1
2018-Jan-12 08:01N 39°43' W 075°31'1 1.4
2018-Jan-12 07:30N 39°43' W 075°31'0 0.9
2018-Jan-12 07:00N 39°42' W 075°31'1 1.7
2018-Jan-12 06:30N 39°43' W 075°31'0 0.7
2018-Jan-12 06:00N 39°43' W 075°31'0 0.0
2018-Jan-12 05:30N 39°43' W 075°31'0 0.0
2018-Jan-12 05:01N 39°43' W 075°31'0 0.0
2018-Jan-12 04:30N 39°43' W 075°31'0 0.0
2018-Jan-12 04:01N 39°43' W 075°31'0 0.0
2018-Jan-12 03:30N 39°43' W 075°31'0 0.0
2018-Jan-12 03:00N 39°43' W 075°31'0 0.0
2018-Jan-12 02:29N 39°43' W 075°31'0 0.0
2018-Jan-12 02:00N 39°43' W 075°31'0 0.0
2018-Jan-12 01:30N 39°43' W 075°31'0 0.0
2018-Jan-12 01:00N 39°43' W 075°31'0 0.0
2018-Jan-12 00:30N 39°43' W 075°31'0 0.0
2018-Jan-12 00:00N 39°43' W 075°31'0 0.0
2018-Jan-11 23:30N 39°43' W 075°31'0 0.0
2018-Jan-11 23:00N 39°43' W 075°31'0 0.0
2018-Jan-11 22:30N 39°43' W 075°31'0 0.2
2018-Jan-11 22:00N 39°43' W 075°31'0 0.1
2018-Jan-11 21:30N 39°43' W 075°31'0 0.0
2018-Jan-11 21:00N 39°43' W 075°31'0 0.0
2018-Jan-11 20:30N 39°43' W 075°31'0 0.3
2018-Jan-11 20:00N 39°43' W 075°31'0 0.7
2018-Jan-11 19:30N 39°43' W 075°31'0 0.0
2018-Jan-11 19:00N 39°43' W 075°31'0 0.0
2018-Jan-11 18:30N 39°43' W 075°31'0 0.0
2018-Jan-11 18:00N 39°43' W 075°31'0 0.0
2018-Jan-11 17:30N 39°43' W 075°31'0 0.0
2018-Jan-11 17:00N 39°43' W 075°31'0 0.0
2018-Jan-11 16:30N 39°43' W 075°31'0 0.0
2018-Jan-11 16:00N 39°43' W 075°31'0 0.0
2018-Jan-11 15:30N 39°43' W 075°31'0 0.0
2018-Jan-11 15:00N 39°43' W 075°31'0 0.0
2018-Jan-11 14:30N 39°43' W 075°31'0 0.0
2018-Jan-11 14:00N 39°43' W 075°31'0 0.0
2018-Jan-11 13:30N 39°43' W 075°31'0 0.8
2018-Jan-11 13:00N 39°43' W 075°31'0 0.0
2018-Jan-11 12:30N 39°43' W 075°31'0 0.8
2018-Jan-11 12:00N 39°43' W 075°31'0 0.0
2018-Jan-11 11:30N 39°43' W 075°31'0 0.0
2018-Jan-11 11:00N 39°43' W 075°31'0 0.0
2018-Jan-11 10:30N 39°43' W 075°31'0 0.0
2018-Jan-11 10:00N 39°43' W 075°31'0 0.0
2018-Jan-11 09:30N 39°43' W 075°31'0 0.0
2018-Jan-11 09:00N 39°43' W 075°31'0 0.0
2018-Jan-11 08:30N 39°43' W 075°31'0 0.0
2018-Jan-11 08:00N 39°43' W 075°31'0 0.0
2018-Jan-11 07:30N 39°43' W 075°31'0 0.0
2018-Jan-11 07:00N 39°43' W 075°31'0 0.0
2018-Jan-11 06:30N 39°43' W 075°31'0 0.0
2018-Jan-11 06:00N 39°43' W 075°31'0 0.0
2018-Jan-11 05:30N 39°43' W 075°31'0 0.0
2018-Jan-11 05:00N 39°43' W 075°31'0 0.0
2018-Jan-11 04:30N 39°43' W 075°31'0 0.0
2018-Jan-11 04:00N 39°43' W 075°31'0 0.0
2018-Jan-11 03:30N 39°43' W 075°31'0 0.0
2018-Jan-11 03:00N 39°43' W 075°31'0 0.0
2018-Jan-11 02:30N 39°43' W 075°31'0 0.0
2018-Jan-11 02:00N 39°43' W 075°31'0 0.0
2018-Jan-11 01:30N 39°43' W 075°31'0 0.0
2018-Jan-11 01:00N 39°43' W 075°31'0 0.0
2018-Jan-11 00:30N 39°43' W 075°31'0 0.0
2018-Jan-11 00:00N 39°43' W 075°31'1 1.2
2018-Jan-10 23:30N 39°43' W 075°32'0 0.1
2018-Jan-10 23:00N 39°43' W 075°32'0 0.3
2018-Jan-10 22:30N 39°43' W 075°32'0 0.8
2018-Jan-10 22:00N 39°43' W 075°31'0 0.0
2018-Jan-10 21:30N 39°43' W 075°31'0 0.0
2018-Jan-10 21:00N 39°43' W 075°31'0 0.0
2018-Jan-10 20:30N 39°43' W 075°31'0 0.0
2018-Jan-10 20:00N 39°43' W 075°31'0 0.0
2018-Jan-10 19:30N 39°43' W 075°31'0 0.0
2018-Jan-10 19:00N 39°43' W 075°31'0 0.0
2018-Jan-10 18:30N 39°43' W 075°31'0 0.0
2018-Jan-10 18:00N 39°43' W 075°31'0 0.0
2018-Jan-10 17:30N 39°43' W 075°31'0 0.4
2018-Jan-10 17:00N 39°43' W 075°31'0 0.4
2018-Jan-10 16:30N 39°43' W 075°31'0 0.0
2018-Jan-10 16:00N 39°43' W 075°31'0 0.0
2018-Jan-10 15:30N 39°43' W 075°31'0 0.0
2018-Jan-10 15:00N 39°43' W 075°31'0 0.0
2018-Jan-10 14:30N 39°43' W 075°31'0 0.0
2018-Jan-10 14:00N 39°43' W 075°31'0 0.0
2018-Jan-10 13:31N 39°43' W 075°31'0 0.0
2018-Jan-10 13:00N 39°43' W 075°31'0 0.0
2018-Jan-10 12:30N 39°43' W 075°31'0 0.0
2018-Jan-10 12:00N 39°43' W 075°31'0 0.0
2018-Jan-10 11:30N 39°43' W 075°31'0 0.0
2018-Jan-10 11:00N 39°43' W 075°31'0 0.0
2018-Jan-10 10:30N 39°43' W 075°31'0 0.0
2018-Jan-10 10:00N 39°43' W 075°31'0 0.0
2018-Jan-10 09:30N 39°43' W 075°31'0 0.0
2018-Jan-10 09:00N 39°43' W 075°31'0 0.0
2018-Jan-10 08:30N 39°43' W 075°31'0 0.0
2018-Jan-10 08:00N 39°43' W 075°31'0 0.0
2018-Jan-10 07:30N 39°43' W 075°31'0 0.0
2018-Jan-10 07:00N 39°43' W 075°31'0 0.0
2018-Jan-10 06:30N 39°43' W 075°31'0 0.0
2018-Jan-10 06:00N 39°43' W 075°31'0 0.0
2018-Jan-10 05:30N 39°43' W 075°31'0 0.0
2018-Jan-10 05:00N 39°43' W 075°31'0 0.0
2018-Jan-10 04:30N 39°43' W 075°31'0 0.0
2018-Jan-10 04:00N 39°43' W 075°31'0 0.0
2018-Jan-10 03:30N 39°43' W 075°31'0 0.0
2018-Jan-10 03:00N 39°43' W 075°31'0 0.0
2018-Jan-10 02:30N 39°43' W 075°31'0 0.0
2018-Jan-10 02:00N 39°43' W 075°31'0 0.0
2018-Jan-10 01:30N 39°43' W 075°31'0 0.4
2018-Jan-10 01:00N 39°43' W 075°31'1 1.2
2018-Jan-10 00:30N 39°43' W 075°31'2 3.7
2018-Jan-10 00:00N 39°41' W 075°31'2 3.9
2018-Jan-09 23:30N 39°43' W 075°31'1 1.1
2018-Jan-09 23:00N 39°43' W 075°31'4 7.8
2018-Jan-09 22:30N 39°39' W 075°33'4 8.1
2018-Jan-09 22:00N 39°36' W 075°36'1 2.0
2018-Jan-09 21:30N 39°35' W 075°35'0 0.2
2018-Jan-09 21:00N 39°35' W 075°35'0 0.1
2018-Jan-09 20:30N 39°35' W 075°35'3 6.6
2018-Jan-09 20:00N 39°38' W 075°35'5 9.6
2018-Jan-09 19:30N 39°42' W 075°31'1 2.9
2018-Jan-09 19:00N 39°43' W 075°32'1 2.2
2018-Jan-09 18:30N 39°42' W 075°31'0 0.4
2018-Jan-09 18:00N 39°42' W 075°31'1 1.2
2018-Jan-09 17:30N 39°43' W 075°31'0 0.2
2018-Jan-09 17:00N 39°43' W 075°31'0 0.3
2018-Jan-09 16:30N 39°43' W 075°31'2 3.1
2018-Jan-09 16:00N 39°42' W 075°31'1 2.0
2018-Jan-09 15:30N 39°41' W 075°31'2 4.9
2018-Jan-09 15:00N 39°43' W 075°31'0 0.6
2018-Jan-09 14:30N 39°43' W 075°31'0 0.6
2018-Jan-09 14:00N 39°43' W 075°31'1 1.2
2018-Jan-09 13:30N 39°43' W 075°31'0 0.3
2018-Jan-09 13:00N 39°43' W 075°32'0 0.1
2018-Jan-09 12:30N 39°43' W 075°32'0 0.9
2018-Jan-09 12:01N 39°43' W 075°31'0 0.0
2018-Jan-09 11:31N 39°43' W 075°31'0 0.0
2018-Jan-09 11:00N 39°43' W 075°31'0 0.0
2018-Jan-09 10:31N 39°43' W 075°31'0 0.0
2018-Jan-09 10:01N 39°43' W 075°31'0 0.0
2018-Jan-09 09:30N 39°43' W 075°31'0 0.0
2018-Jan-09 09:00N 39°43' W 075°31'0 0.0
2018-Jan-09 08:30N 39°43' W 075°31'0 0.1
2018-Jan-09 08:00N 39°43' W 075°31'0 0.1
2018-Jan-09 07:30N 39°43' W 075°31'0 0.0
2018-Jan-09 07:00N 39°43' W 075°31'0 0.0
2018-Jan-09 06:30N 39°43' W 075°31'0 0.0
2018-Jan-09 06:00N 39°43' W 075°31'0 0.0
2018-Jan-09 05:30N 39°43' W 075°31'0 0.0
2018-Jan-09 05:00N 39°43' W 075°31'0 0.0
2018-Jan-09 04:30N 39°43' W 075°31'0 0.0
2018-Jan-09 04:00N 39°43' W 075°31'0 0.0
2018-Jan-09 03:30N 39°43' W 075°31'0 0.0
2018-Jan-09 03:00N 39°43' W 075°31'0 0.0
2018-Jan-09 02:30N 39°43' W 075°31'0 0.0
2018-Jan-09 02:00N 39°43' W 075°31'0 0.0
2018-Jan-09 01:30N 39°43' W 075°31'0 0.0
2018-Jan-09 01:00N 39°43' W 075°31'0 0.0
2018-Jan-09 00:30N 39°43' W 075°31'0 0.0
2018-Jan-09 00:00N 39°43' W 075°31'0 0.0
2018-Jan-08 23:30N 39°43' W 075°31'0 0.0
2018-Jan-08 23:00N 39°43' W 075°31'0 0.0
2018-Jan-08 22:30N 39°43' W 075°31'0 0.0
2018-Jan-08 22:00N 39°43' W 075°31'0 0.0
2018-Jan-08 21:30N 39°43' W 075°31'1 1.4
2018-Jan-08 21:00N 39°43' W 075°30'0 0.1
2018-Jan-08 20:30N 39°43' W 075°30'1 1.5
2018-Jan-08 20:00N 39°43' W 075°31'0 0.0
2018-Jan-08 19:30N 39°43' W 075°31'0 0.0
2018-Jan-08 19:00N 39°43' W 075°31'0 0.5
2018-Jan-08 18:30N 39°43' W 075°31'0 0.5
2018-Jan-08 18:00N 39°43' W 075°31'0 0.0
2018-Jan-08 17:30N 39°43' W 075°31'0 0.8
2018-Jan-08 17:00N 39°43' W 075°31'1 2.1
2018-Jan-08 16:31N 39°42' W 075°31'2 4.4
2018-Jan-08 16:00N 39°40' W 075°32'3 5.3
2018-Jan-08 15:30N 39°43' W 075°31'0 0.8
2018-Jan-08 15:00N 39°43' W 075°31'  
Track history (hours):
 
Tides and Currents Weather Stations Pressure Air Temp Water Temp Dewpoint Dewpoint Depression Visibility Wind Speed Wind Dir Waves Ship Positions

Sally

Owner: Wilmington Tug, Inc., New Castle, DE. More information available from US FCC via Universal Licensing System and Coast Guard Vessel Documentation Center.

Last reported at 2018-Jan-18 15:00 UTC. Time now 2018-Jan-18 15:34 UTC.
Position N 39°43' W 075°31'.

Length 24 m; draft 4 m.

Type: Tug. MMSI: 367012660.

Date/timePositionNaut miles runAvg speedWind from/ knotsBaromVisibWave heightAir tempDewpointWater temp
2018-Jan-18 15:00N 39°43' W 075°31'0 0.0
2018-Jan-18 14:30N 39°43' W 075°31'0 0.0
2018-Jan-18 14:00N 39°43' W 075°31'0 0.3
2018-Jan-18 13:28N 39°43' W 075°31'0 0.0
2018-Jan-18 13:00N 39°43' W 075°31'1 2.0
2018-Jan-18 12:30N 39°43' W 075°30'1 1.3
2018-Jan-18 12:00N 39°43' W 075°31'0 0.5
2018-Jan-18 11:30N 39°43' W 075°31'0 0.0
2018-Jan-18 11:00N 39°43' W 075°31'0 0.0
2018-Jan-18 10:30N 39°43' W 075°31'0 0.0
2018-Jan-18 10:00N 39°43' W 075°31'0 0.0
2018-Jan-18 09:30N 39°43' W 075°31'0 0.0
2018-Jan-18 09:01N 39°43' W 075°31'0 0.0
2018-Jan-18 08:30N 39°43' W 075°31'2 4.2
2018-Jan-18 08:01N 39°41' W 075°32'5 9.7
2018-Jan-18 07:31N 39°37' W 075°36'2 5.0
2018-Jan-18 07:00N 39°35' W 075°35'0 0.0
2018-Jan-18 06:30N 39°35' W 075°35'0 0.1
2018-Jan-18 06:01N 39°35' W 075°35'0 0.1
2018-Jan-18 05:30N 39°35' W 075°35'0 0.9
2018-Jan-18 05:00N 39°35' W 075°35'1 2.0
2018-Jan-18 04:30N 39°34' W 075°34'0 0.1
2018-Jan-18 04:00N 39°34' W 075°34'1 2.7
2018-Jan-18 03:30N 39°35' W 075°35'0 0.0
2018-Jan-18 03:01N 39°35' W 075°35'1 2.0
2018-Jan-18 02:30N 39°36' W 075°36'5 9.1
2018-Jan-18 02:00N 39°40' W 075°33'4 7.2
2018-Jan-18 01:30N 39°43' W 075°31'0 0.0
2018-Jan-18 01:01N 39°43' W 075°31'0 0.0
2018-Jan-18 00:01N 39°43' W 075°31'0 0.1
2018-Jan-17 23:58N 39°43' W 075°31'  
2018-Jan-12 15:00N 39°43' W 075°31'0 0.0
2018-Jan-12 14:30N 39°43' W 075°31'0 0.0
2018-Jan-12 14:00N 39°43' W 075°31'0 0.0
2018-Jan-12 13:30N 39°43' W 075°31'0 0.0
2018-Jan-12 13:00N 39°43' W 075°31'0 0.0
2018-Jan-12 12:30N 39°43' W 075°31'0 0.0
2018-Jan-12 12:00N 39°43' W 075°31'0 0.0
2018-Jan-12 11:30N 39°43' W 075°31'0 0.0
2018-Jan-12 11:00N 39°43' W 075°31'0 0.0
2018-Jan-12 10:30N 39°43' W 075°31'0 0.0
2018-Jan-12 10:00N 39°43' W 075°31'0 0.0
2018-Jan-12 09:30N 39°43' W 075°31'0 0.0
2018-Jan-12 09:00N 39°43' W 075°31'0 0.3
2018-Jan-12 08:30N 39°43' W 075°31'1 1.1
2018-Jan-12 08:01N 39°43' W 075°31'1 1.4
2018-Jan-12 07:30N 39°43' W 075°31'0 0.9
2018-Jan-12 07:00N 39°42' W 075°31'1 1.7
2018-Jan-12 06:30N 39°43' W 075°31'0 0.7
2018-Jan-12 06:00N 39°43' W 075°31'0 0.0
2018-Jan-12 05:30N 39°43' W 075°31'0 0.0
2018-Jan-12 05:01N 39°43' W 075°31'0 0.0
2018-Jan-12 04:30N 39°43' W 075°31'0 0.0
2018-Jan-12 04:01N 39°43' W 075°31'0 0.0
2018-Jan-12 03:30N 39°43' W 075°31'0 0.0
2018-Jan-12 03:00N 39°43' W 075°31'0 0.0
2018-Jan-12 02:29N 39°43' W 075°31'0 0.0
2018-Jan-12 02:00N 39°43' W 075°31'0 0.0
2018-Jan-12 01:30N 39°43' W 075°31'0 0.0
2018-Jan-12 01:00N 39°43' W 075°31'0 0.0
2018-Jan-12 00:30N 39°43' W 075°31'0 0.0
2018-Jan-12 00:00N 39°43' W 075°31'0 0.0
2018-Jan-11 23:30N 39°43' W 075°31'0 0.0
2018-Jan-11 23:00N 39°43' W 075°31'0 0.0
2018-Jan-11 22:30N 39°43' W 075°31'0 0.2
2018-Jan-11 22:00N 39°43' W 075°31'0 0.1
2018-Jan-11 21:30N 39°43' W 075°31'0 0.0
2018-Jan-11 21:00N 39°43' W 075°31'0 0.0
2018-Jan-11 20:30N 39°43' W 075°31'0 0.3
2018-Jan-11 20:00N 39°43' W 075°31'0 0.7
2018-Jan-11 19:30N 39°43' W 075°31'0 0.0
2018-Jan-11 19:00N 39°43' W 075°31'0 0.0
2018-Jan-11 18:30N 39°43' W 075°31'0 0.0
2018-Jan-11 18:00N 39°43' W 075°31'0 0.0
2018-Jan-11 17:30N 39°43' W 075°31'0 0.0
2018-Jan-11 17:00N 39°43' W 075°31'0 0.0
2018-Jan-11 16:30N 39°43' W 075°31'0 0.0
2018-Jan-11 16:00N 39°43' W 075°31'0 0.0
2018-Jan-11 15:30N 39°43' W 075°31'0 0.0
2018-Jan-11 15:00N 39°43' W 075°31'0 0.0
2018-Jan-11 14:30N 39°43' W 075°31'0 0.0
2018-Jan-11 14:00N 39°43' W 075°31'0 0.0
2018-Jan-11 13:30N 39°43' W 075°31'0 0.8
2018-Jan-11 13:00N 39°43' W 075°31'0 0.0
2018-Jan-11 12:30N 39°43' W 075°31'0 0.8
2018-Jan-11 12:00N 39°43' W 075°31'0 0.0
2018-Jan-11 11:30N 39°43' W 075°31'0 0.0
2018-Jan-11 11:00N 39°43' W 075°31'0 0.0
2018-Jan-11 10:30N 39°43' W 075°31'0 0.0
2018-Jan-11 10:00N 39°43' W 075°31'0 0.0
2018-Jan-11 09:30N 39°43' W 075°31'0 0.0
2018-Jan-11 09:00N 39°43' W 075°31'0 0.0
2018-Jan-11 08:30N 39°43' W 075°31'0 0.0
2018-Jan-11 08:00N 39°43' W 075°31'0 0.0
2018-Jan-11 07:30N 39°43' W 075°31'0 0.0
2018-Jan-11 07:00N 39°43' W 075°31'0 0.0
2018-Jan-11 06:30N 39°43' W 075°31'0 0.0
2018-Jan-11 06:00N 39°43' W 075°31'0 0.0
2018-Jan-11 05:30N 39°43' W 075°31'0 0.0
2018-Jan-11 05:00N 39°43' W 075°31'0 0.0
2018-Jan-11 04:30N 39°43' W 075°31'0 0.0
2018-Jan-11 04:00N 39°43' W 075°31'0 0.0
2018-Jan-11 03:30N 39°43' W 075°31'0 0.0
2018-Jan-11 03:00N 39°43' W 075°31'0 0.0
2018-Jan-11 02:30N 39°43' W 075°31'0 0.0
2018-Jan-11 02:00N 39°43' W 075°31'0 0.0
2018-Jan-11 01:30N 39°43' W 075°31'0 0.0
2018-Jan-11 01:00N 39°43' W 075°31'0 0.0
2018-Jan-11 00:30N 39°43' W 075°31'0 0.0
2018-Jan-11 00:00N 39°43' W 075°31'1 1.2
2018-Jan-10 23:30N 39°43' W 075°32'0 0.1
2018-Jan-10 23:00N 39°43' W 075°32'0 0.3
2018-Jan-10 22:30N 39°43' W 075°32'0 0.8
2018-Jan-10 22:00N 39°43' W 075°31'0 0.0
2018-Jan-10 21:30N 39°43' W 075°31'0 0.0
2018-Jan-10 21:00N 39°43' W 075°31'0 0.0
2018-Jan-10 20:30N 39°43' W 075°31'0 0.0
2018-Jan-10 20:00N 39°43' W 075°31'0 0.0
2018-Jan-10 19:30N 39°43' W 075°31'0 0.0
2018-Jan-10 19:00N 39°43' W 075°31'0 0.0
2018-Jan-10 18:30N 39°43' W 075°31'0 0.0
2018-Jan-10 18:00N 39°43' W 075°31'0 0.0
2018-Jan-10 17:30N 39°43' W 075°31'0 0.4
2018-Jan-10 17:00N 39°43' W 075°31'0 0.4
2018-Jan-10 16:30N 39°43' W 075°31'0 0.0
2018-Jan-10 16:00N 39°43' W 075°31'0 0.0
2018-Jan-10 15:30N 39°43' W 075°31'0 0.0
2018-Jan-10 15:00N 39°43' W 075°31'0 0.0
2018-Jan-10 14:30N 39°43' W 075°31'0 0.0
2018-Jan-10 14:00N 39°43' W 075°31'0 0.0
2018-Jan-10 13:31N 39°43' W 075°31'0 0.0
2018-Jan-10 13:00N 39°43' W 075°31'0 0.0
2018-Jan-10 12:30N 39°43' W 075°31'0 0.0
2018-Jan-10 12:00N 39°43' W 075°31'0 0.0
2018-Jan-10 11:30N 39°43' W 075°31'0 0.0
2018-Jan-10 11:00N 39°43' W 075°31'0 0.0
2018-Jan-10 10:30N 39°43' W 075°31'0 0.0
2018-Jan-10 10:00N 39°43' W 075°31'0 0.0
2018-Jan-10 09:30N 39°43' W 075°31'0 0.0
2018-Jan-10 09:00N 39°43' W 075°31'0 0.0
2018-Jan-10 08:30N 39°43' W 075°31'0 0.0
2018-Jan-10 08:00N 39°43' W 075°31'0 0.0
2018-Jan-10 07:30N 39°43' W 075°31'0 0.0
2018-Jan-10 07:00N 39°43' W 075°31'0 0.0
2018-Jan-10 06:30N 39°43' W 075°31'0 0.0
2018-Jan-10 06:00N 39°43' W 075°31'0 0.0
2018-Jan-10 05:30N 39°43' W 075°31'0 0.0
2018-Jan-10 05:00N 39°43' W 075°31'0 0.0
2018-Jan-10 04:30N 39°43' W 075°31'0 0.0
2018-Jan-10 04:00N 39°43' W 075°31'0 0.0
2018-Jan-10 03:30N 39°43' W 075°31'0 0.0
2018-Jan-10 03:00N 39°43' W 075°31'0 0.0
2018-Jan-10 02:30N 39°43' W 075°31'0 0.0
2018-Jan-10 02:00N 39°43' W 075°31'0 0.0
2018-Jan-10 01:30N 39°43' W 075°31'0 0.4
2018-Jan-10 01:00N 39°43' W 075°31'1 1.2
2018-Jan-10 00:30N 39°43' W 075°31'2 3.7
2018-Jan-10 00:00N 39°41' W 075°31'2 3.9
2018-Jan-09 23:30N 39°43' W 075°31'1 1.1
2018-Jan-09 23:00N 39°43' W 075°31'4 7.8
2018-Jan-09 22:30N 39°39' W 075°33'4 8.1
2018-Jan-09 22:00N 39°36' W 075°36'1 2.0
2018-Jan-09 21:30N 39°35' W 075°35'0 0.2
2018-Jan-09 21:00N 39°35' W 075°35'0 0.1
2018-Jan-09 20:30N 39°35' W 075°35'3 6.6
2018-Jan-09 20:00N 39°38' W 075°35'5 9.6
2018-Jan-09 19:30N 39°42' W 075°31'1 2.9
2018-Jan-09 19:00N 39°43' W 075°32'1 2.2
2018-Jan-09 18:30N 39°42' W 075°31'0 0.4
2018-Jan-09 18:00N 39°42' W 075°31'1 1.2
2018-Jan-09 17:30N 39°43' W 075°31'0 0.2
2018-Jan-09 17:00N 39°43' W 075°31'0 0.3
2018-Jan-09 16:30N 39°43' W 075°31'2 3.1
2018-Jan-09 16:00N 39°42' W 075°31'1 2.0
2018-Jan-09 15:30N 39°41' W 075°31'2 4.9
2018-Jan-09 15:00N 39°43' W 075°31'0 0.6
2018-Jan-09 14:30N 39°43' W 075°31'0 0.6
2018-Jan-09 14:00N 39°43' W 075°31'1 1.2
2018-Jan-09 13:30N 39°43' W 075°31'0 0.3
2018-Jan-09 13:00N 39°43' W 075°32'0 0.1
2018-Jan-09 12:30N 39°43' W 075°32'0 0.9
2018-Jan-09 12:01N 39°43' W 075°31'0 0.0
2018-Jan-09 11:31N 39°43' W 075°31'0 0.0
2018-Jan-09 11:00N 39°43' W 075°31'0 0.0
2018-Jan-09 10:31N 39°43' W 075°31'0 0.0
2018-Jan-09 10:01N 39°43' W 075°31'0 0.0
2018-Jan-09 09:30N 39°43' W 075°31'0 0.0
2018-Jan-09 09:00N 39°43' W 075°31'0 0.0
2018-Jan-09 08:30N 39°43' W 075°31'0 0.1
2018-Jan-09 08:00N 39°43' W 075°31'0 0.1
2018-Jan-09 07:30N 39°43' W 075°31'0 0.0
2018-Jan-09 07:00N 39°43' W 075°31'0 0.0
2018-Jan-09 06:30N 39°43' W 075°31'0 0.0
2018-Jan-09 06:00N 39°43' W 075°31'0 0.0
2018-Jan-09 05:30N 39°43' W 075°31'0 0.0
2018-Jan-09 05:00N 39°43' W 075°31'0 0.0
2018-Jan-09 04:30N 39°43' W 075°31'0 0.0
2018-Jan-09 04:00N 39°43' W 075°31'0 0.0
2018-Jan-09 03:30N 39°43' W 075°31'0 0.0
2018-Jan-09 03:00N 39°43' W 075°31'0 0.0
2018-Jan-09 02:30N 39°43' W 075°31'0 0.0
2018-Jan-09 02:00N 39°43' W 075°31'0 0.0
2018-Jan-09 01:30N 39°43' W 075°31'0 0.0
2018-Jan-09 01:00N 39°43' W 075°31'0 0.0
2018-Jan-09 00:30N 39°43' W 075°31'0 0.0
2018-Jan-09 00:00N 39°43' W 075°31'0 0.0
2018-Jan-08 23:30N 39°43' W 075°31'0 0.0
2018-Jan-08 23:00N 39°43' W 075°31'0 0.0
2018-Jan-08 22:30N 39°43' W 075°31'0 0.0
2018-Jan-08 22:00N 39°43' W 075°31'0 0.0
2018-Jan-08 21:30N 39°43' W 075°31'1 1.4
2018-Jan-08 21:00N 39°43' W 075°30'0 0.1
2018-Jan-08 20:30N 39°43' W 075°30'1 1.5
2018-Jan-08 20:00N 39°43' W 075°31'0 0.0
2018-Jan-08 19:30N 39°43' W 075°31'0 0.0
2018-Jan-08 19:00N 39°43' W 075°31'0 0.5
2018-Jan-08 18:30N 39°43' W 075°31'0 0.5
2018-Jan-08 18:00N 39°43' W 075°31'0 0.0
2018-Jan-08 17:30N 39°43' W 075°31'0 0.8
2018-Jan-08 17:00N 39°43' W 075°31'1 2.1
2018-Jan-08 16:31N 39°42' W 075°31'2 4.4
2018-Jan-08 16:00N 39°40' W 075°32'3 5.3
2018-Jan-08 15:30N 39°43' W 075°31'0 0.8
2018-Jan-08 15:00N 39°43' W 075°31'  

Dump ship's entire track history